Terminal Aerodrome Forecast
Issued by NWS

Home | Current Version | Previous Version | Text Only | Print | Product List | Glossary On
Versions: 1 2 3 4 5 6 7 8 9 10 11 12 13 14 15 16 17 18 19 20 21 22 23 24 25 26 27 28 29 30 31 32
000
FTUS41 KBUF 261747 RRA
TAFIAG
TAF
KIAG 261747Z 2618/2718 12007KT P6SM BKN100
     FM270300 17009KT 6SM -RA OVC035
     FM270500 18010G18KT P6SM OVC025
     FM271000 18006KT P6SM OVC012
     FM271400 22010G17KT P6SM BKN012=

USA.gov is the U.S. government's official web portal to all federal, state and local government web resources and services.